Tiempo atmosférico en la estación meteorológica de Tarancón, Cuenca (808 m.)



Fecha
DESCASC
Temp. máxima en grados centígrados (hora)
DESCASC
Temp. mínima en grados centígrados (hora)
DESCASC
Temp. media en grados centígrados
DESCASC
Racha de viento máxima en m/sg (hora)
DESCASC
Velocidad máxima media en intervalos de 10 minutos(hora)
DESCASC
Precipitaciones diarias en mm
DESCASC
Precipitaciones de 00:00 a 06:00 en mm
DESCASC
Precipitaciones de 06:00 a 12:00 en mm
DESCASC
Precipitaciones de 12:00 a 18:00 en mm
DESCASC
Precipitaciones de 18:00 a 24:00 en mm
DESCASC
22-08-2019 33.4 (18:00) 15 (06:30) 24.2 6.94 (19:10) 4.17 (11:20) 0 0 0 0 0
21-08-2019 31 (17:00) 18.2 (23:30) 24.6 13.33 (01:40) 7.22 (00:40) 0.4 0 0 0 0.4
20-08-2019 33 (15:50) 21.3 (07:50) 27.1 10.83 (21:50) 6.39 (21:50) 0 0 0 0 0
19-08-2019 34.9 (16:30) 19.5 (07:40) 27.2 12.5 (15:30) 6.39 (17:00) 0 0 0 0 0
18-08-2019 36.9 (16:10) 21.2 (00:00) 29.1 14.17 (17:50) 7.5 (17:10) 0 0 0 0 0
17-08-2019 38.2 (17:20) 20.8 (00:00) 29.5 17.22 (18:40) 5.83 (17:00) 0 0 0 0 0
16-08-2019 36.9 (18:00) 21.2 (00:00) 29.1 10.56 (15:50) 5 (02:10) 0 0 0 0 0
15-08-2019 35.8 (18:20) 19.9 (00:00) 27.8 9.17 (16:20) 4.17 (16:20) 0 0 0 0 0
14-08-2019 33.1 (18:10) 17.9 (00:00) 25.5 8.61 (16:10) 3.61 (13:40) 0 0 0 0 0
13-08-2019 31.1 (17:40) 15.2 (00:00) 23.2 8.33 (18:20) 3.33 (00:20) 0 0 0 0 0
12-08-2019 29 (17:30) 14.8 (00:00) 21.9 11.94 (12:40) 6.67 (10:40) 0 0 0 0 0
11-08-2019 31.8 (16:40) 19.4 (00:00) 25.6 13.33 (18:40) 6.67 (18:10) 0 0 0 0 0
10-08-2019 34.5 (18:10) 17.8 (00:00) 26.1 11.94 (18:20) 5.83 (18:20) 0 0 0 0 0
09-08-2019 34.2 (17:40) 20.3 (00:00) 27.3 14.17 (17:30) 7.5 (19:10) 0 0 0 0 0
08-08-2019 34.9 (18:20) 18.7 (00:00) 26.8 11.94 (16:30) 6.11 (19:30) 0 0 0 0 0
07-08-2019 31.1 (14:50) 20.9 (00:00) 26 10.83 (17:00) 5.28 (19:00) 0 0 0 0 0
06-08-2019 37.1 (17:30) 21 (00:00) 29 12.22 (14:40) 6.39 (19:20) 0 0 0 0 0
05-08-2019 37.8 (17:50) 22.5 (00:00) 30.1 8.61 (17:20) 4.17 (18:10) 0 0 0 0 0
04-08-2019 37.5 (17:30) 20.8 (00:00) 29.1 11.11 (15:50) 5 (15:10) 0 0 0 0 0
03-08-2019 37.2 (18:10) 20.8 (00:00) 29 11.39 (18:20) 6.39 (19:00) 0 0 0 0 0
02-08-2019 36.6 (18:00) 19.2 (00:00) 27.9 8.61 (15:30) 3.89 (17:30) 0 0 0 0 0
01-08-2019 35.4 (18:00) 17.7 (00:00) 26.6 15 (00:10) 8.06 (00:20) 0 0 0 0 0
31-07-2019 34.7 (17:20) 19.5 (00:00) 27.1 14.44 (22:00) 7.5 (19:20) 0 0 0 0 0
30-07-2019 33.4 (17:00) 16.6 (00:00) 25 8.89 (17:30) 3.61 (00:10) 0 0 0 0 0
29-07-2019 34.2 (17:40) 19.3 (00:00) 26.8 11.94 (17:10) 6.39 (17:10) 0 0 0 0 0
28-07-2019 31.1 (18:10) 13.2 (00:00) 22.2 8.89 (17:20) 3.89 (04:30) 0 0 0 0 0
27-07-2019 28.6 (16:50) 17.2 (00:00) 22.9 14.72 (16:00) 7.78 (17:00) 0 0 0 0 0
26-07-2019 32.6 (16:50) 22.9 (00:00) 27.7 13.89 (17:00) 6.94 (16:50) 0 0 0 0 0

Gráficas

Temp. máximas Temp. mínimas Temp. medias Precipitaciones Rachas de viento máximas Velocidades máximas media en intervalos de 10 minutos

Datos horarios

Fecha y hora oficial Temperatura (ºC) Velocidad del viento (km/h) Dirección del viento Racha (km/h) Dirección de racha Precipitación (mm) Presión (hPa) Tendencia (hPa) Humedad (%)
2019-08-24 23:00:00 26.1 3 Sudeste 5 Sudeste 0 924.6 0.3 22
2019-08-24 22:00:00 27.7 0 Calma 4 Sur 0 924.3 -0.4 20
2019-08-24 21:00:00 30 0 Calma 14 Noroeste 0 924.1 -0.9 14
2019-08-24 20:00:00 31.5 6 Oeste 19 Noroeste 0 924.3 -0.9 12
2019-08-24 19:00:00 33 3 Noroeste 26 Noroeste 0 924.7 -1.1 12
2019-08-24 18:00:00 33.1 10 Norte 21 Noroeste 0 925 -1.2 12
2019-08-24 17:00:00 33.5 6 Norte 18 Este 0 925.2 -1.6 13
2019-08-24 16:00:00 34.3 9 Sudeste 20 Sudeste 0 925.8 -1.4 13
2019-08-24 15:00:00 32.7 6 Sur 19 Este 0 926.2 -1.2 15
2019-08-24 14:00:00 30.4 7 Norte 24 Sur 0 926.8 -0.5 16
2019-08-24 13:00:00 29.8 8 Sudeste 21 Sudeste 0 927.2 0.1 19
2019-08-24 12:00:00 27.2 10 Sur 26 Sudeste 0 927.4 0.4 25
2019-08-24 11:00:00 24.1 15 Sudeste 27 Sudeste 0 927.3 0.7 31
2019-08-24 10:00:00 21.9 13 Sudeste 25 Sudeste 0 927.1 0.6 36
2019-08-24 09:00:00 19.6 10 Sudeste 20 Este 0 927 0.5 43
2019-08-24 08:00:00 18.6 11 Sudeste 21 Sudeste 0 926.6 0.1 47
2019-08-24 07:00:00 18.4 9 Sudeste 19 Sudeste 0 926.5 -0.1 46
2019-08-24 06:00:00 18.9 11 Sudeste 22 Sudeste 0 926.5 -0.1 46
2019-08-24 05:00:00 19.1 12 Sudeste 26 Sudeste 0 926.5 -0.3 47
2019-08-24 04:00:00 19.8 12 Sudeste 27 Sudeste 0 926.6 0.2 46
2019-08-24 03:00:00 20.5 13 Sudeste 30 Sudeste 0 926.6 0.5 43
2019-08-24 02:00:00 21.6 18 Sudeste 32 Sudeste 0 926.8 1 35
2019-08-24 01:00:00 22.9 16 Sudeste 33 Sudeste 0 926.4 0.9 29
2019-08-24 00:00:00 23.7 9 Sudeste 15 Sur 0 926.1 0.9 22
2019-08-23 23:00:00 25.3 9 Sudeste 17 Sudeste 0 925.8 0.6 21
2019-08-23 22:00:00 26.7 5 Sur 12 Sur 0 925.5 0.1 19
2019-08-23 21:00:00 28.9 3 Sur 13 Sudoeste 0 925.2 -0.5 19
2019-08-23 20:00:00 30.5 5 Sudoeste 23 Sudoeste 0 925.2 -0.8 16
2019-08-23 19:00:00 32 8 Sudoeste 18 Sur 0 925.4 -1 15
2019-08-23 18:00:00 33 12 Sudoeste 20 Sudoeste 0 925.7 -1.4 15
2019-08-23 17:00:00 33.3 8 Sudeste 21 Sur 0 926 -1.5 15
2019-08-23 16:00:00 32.9 9 Sudeste 26 Sudeste 0 926.4 -1.6 16
2019-08-23 15:00:00 31.3 10 Sudeste 29 Sudeste 0 927.1 -1.3 19
2019-08-23 14:00:00 30 9 Sudeste 24 Sudeste 0 927.5 -1 22
2019-08-23 13:00:00 28.5 10 Sudeste 26 Sudeste 0 928 -0.5 24
2019-08-23 12:00:00 25.8 12 Sudeste 26 Sudeste 0 928.4 0.1 29
2019-08-23 11:00:00 23.1 14 Sudeste 25 Este 0 928.5 0.8 37
2019-08-23 10:00:00 20.8 9 Este 22 Este 0 928.5 1.2 47
2019-08-23 09:00:00 18.7 9 Nordeste 21 Este 0 928.3 1.1 53
2019-08-23 08:00:00 17.9 14 Sudeste 28 Sudeste 0 927.7 0.4 60
2019-08-23 07:00:00 18.2 12 Sudeste 27 Sudeste 0 927.3 0.2 61
2019-08-23 06:00:00 18.5 17 Sudeste 29 Sudeste 0 927.2 0.1 59
2019-08-23 05:00:00 18.7 14 Sudeste 32 Sudeste 0 927.3 0.1 57
2019-08-23 04:00:00 19.5 19 Sudeste 31 Sudeste 0 927.1 -0.1 55
2019-08-23 03:00:00 20.6 15 Sudeste 33 Sudeste 0 927.1 0.1 53
2019-08-23 02:00:00 21.5 17 Sudeste 32 Sudeste 0 927.2 0.3 48
2019-08-23 01:00:00 22.8 16 Sudeste 29 Sudeste 0 927.2 0.7 39
2019-08-23 00:00:00 24 8 Sudeste 17 Sudeste 0 927 0.9 31
2019-08-22 23:00:00 25.2 4 Sudeste 11 Sudeste 0 926.9 1.1 29
2019-08-22 22:00:00 26.3 4 Sur 9 Sur 0 926.5 0.6 26
2019-08-22 21:00:00 28.3 5 Sudoeste 19 Sudeste 0 926.1 0 21
2019-08-22 20:00:00 29.9 8 Sur 25 Sudeste 0 925.8 -0.7 19
2019-08-22 19:00:00 31.1 8 Este 18 Este 0 925.9 -1.1 17
2019-08-22 18:00:00 33.4 5 Sur 19 Este 0 926.1 -1.3 15
2019-08-22 17:00:00 33.3 7 Este 22 Sudeste 0 926.5 -1.3 15
2019-08-22 16:00:00 30.9 7 Nordeste 17 Nordeste 0 927 -1.2 17
2019-08-22 15:00:00 29.8 7 Este 21 Sudeste 0 927.4 -1.2 20
2019-08-22 14:00:00 28.1 8 Este 17 Sudeste 0 927.8 -0.6 27
2019-08-22 13:00:00 26.1 6 Este 21 Sudeste 0 928.2 0 32
2019-08-22 12:00:00 24.2 13 Sudeste 24 Sudeste 0 928.6 0.3 43
2019-08-22 11:00:00 21.6 13 Sudeste 22 Sudeste 0 928.4 0.8 53
2019-08-22 10:00:00 19 11 Este 19 Este 0 928.2 0.8 62
2019-08-22 09:00:00 16.5 8 Sudeste 14 Este 0 928.3 0.9 74
2019-08-22 08:00:00 15 4 Norte 7 Noroeste 0 927.6 0.1 73
2019-08-22 07:00:00 15.6 4 Norte 9 Norte 0 927.4 -0.2 69
2019-08-22 06:00:00 17 5 Norte 10 Norte 0 927.4 -0.5 62
2019-08-22 05:00:00 17.9 6 Este 11 Este 0 927.5 -0.2 61
2019-08-22 04:00:00 17.2 5 Este 14 Nordeste 0 927.6 0 67
2019-08-22 03:00:00 16.9 9 Nordeste 15 Norte 0 927.9 0.3 65
2019-08-22 02:00:00 17.4 8 Norte 19 Nordeste 0 927.7 -1.1 64
2019-08-22 01:00:00 18.6 5 Norte 23 Sur 0 927.6 0.5 63
2019-08-22 00:00:00 18.4 8 Sur 33 Sudeste 0.2 927.6 1.2 67
2019-08-21 23:00:00 18.7 21 Sudeste 47 Este 0.2 928.8 3 67
2019-08-21 22:00:00 22.4 17 Sudeste 36 Sudeste 0 927.1 1.4 60
2019-08-21 21:00:00 23.6 16 Sudeste 37 Sudeste 0 926.4 0.8 55
2019-08-21 20:00:00 25.4 18 Sudeste 37 Sudeste 0 925.8 0.3 49
2019-08-21 19:00:00 27.7 15 Sudeste 36 Sudeste 0 925.7 -0.1 41
2019-08-21 18:00:00 29.7 14 Sudeste 33 Sur 0 925.6 -0.9 36
2019-08-21 17:00:00 30.5 12 Sudeste 31 Sudeste 0 925.5 -1.1 34
2019-08-21 16:00:00 28.8 10 Sur 26 Sur 0 925.8 -1.5 38
2019-08-21 15:00:00 26.7 10 Sur 31 Sudeste 0 926.5 -0.9 45
2019-08-21 14:00:00 26.9 16 Sudeste 32 Sudeste 0 926.6 -0.8 44
2019-08-21 13:00:00 26.4 18 Sudeste 37 Sudeste 0 927.3 0 47
2019-08-21 12:00:00 24 18 Sudeste 38 Sudeste 0 927.4 0.3 57
2019-08-21 11:00:00 23 17 Sudeste 38 Sudeste 0 927.4 0.6 62
2019-08-21 10:00:00 21.9 19 Sudeste 37 Sudeste 0 927.3 0.6 65
2019-08-21 09:00:00 20.2 15 Sudeste 27 Sudeste 0 927.1 0.5 69
2019-08-21 08:00:00 19.6 10 Este 26 Sudeste 0 926.8 0 70
2019-08-21 07:00:00 19.7 12 Sudeste 27 Sudeste 0 926.7 -0.2 69
2019-08-21 06:00:00 19.7 17 Sudeste 36 Sudeste 0 926.6 -0.4 69
2019-08-21 05:00:00 20 21 Sudeste 34 Sudeste 0 926.8 -0.1 67
2019-08-21 04:00:00 20.4 17 Sudeste 40 Sudeste 0 926.9 0 64
2019-08-21 03:00:00 20.2 18 Sudeste 40 Sudeste 0 927 0.3 65
2019-08-21 02:00:00 20.5 20 Sudeste 48 Sudeste 0 926.9 0.5 64
2019-08-21 01:00:00 20.9 24 Sudeste 46 Sudeste 0 926.9 0.8 63
2019-08-21 00:00:00 21.8 14 Sudeste 39 Sudeste 0 926.7 1.6 58
2019-08-20 23:00:00 23 15 Sudeste 32 Sudeste 0 926.4 2.2 57
2019-08-20 22:00:00 25 18 Sudeste 39 Sudeste 0 926.1 2.1 51
2019-08-20 21:00:00 26.6 14 Nordeste 35 Norte 0 925.1 1.2 36
2019-08-20 20:00:00 27.7 22 Norte 37 Norte 0 924.2 0.2 34
2019-08-20 19:00:00 28.9 13 Nordeste 30 Norte 0 924 -0.1 32
2019-08-20 18:00:00 30.4 14 Nordeste 36 Nordeste 0 923.9 -0.6 30
2019-08-20 17:00:00 29.6 11 Noroeste 35 Norte 0 924 -0.7 31
2019-08-20 16:00:00 30.4 10 Norte 23 Sudeste 0 924.1 -0.9 27
2019-08-20 15:00:00 30.6 8 Este 22 Sudeste 0 924.5 -0.3 26
2019-08-20 14:00:00 30 10 Este 20 Sudeste 0 924.7 0.2 29
2019-08-20 13:00:00 27.7 7 Este 24 Sudeste 0 925 0.9 42
2019-08-20 12:00:00 26.3 9 Este 24 Este 0 924.8 1.3 48
2019-08-20 11:00:00 24.8 12 Sudeste 23 Sudeste 0 924.5 1.4 58
2019-08-20 10:00:00 23 10 Sudeste 27 Sudeste 0 924.1 1.6 66
2019-08-20 09:00:00 21.9 14 Sudeste 30 Sudeste 0 923.5 1 72
2019-08-20 08:00:00 21.4 16 Sudeste 33 Sudeste 0 923.1 0.8 74
2019-08-20 07:00:00 21.4 16 Sudeste 30 Sudeste 0 922.5 0 74
2019-08-20 06:00:00 21.5 13 Sudeste 26 Sudeste 0 922.5 -0.1 73
2019-08-20 05:00:00 22 15 Sudeste 33 Sudeste 0 922.3 -0.4 72
2019-08-20 04:00:00 22.5 13 Sudeste 29 Sudeste 0 922.5 0 71
2019-08-20 03:00:00 22.8 14 Sudeste 29 Sudeste 0 922.6 0.1 70
2019-08-20 02:00:00 23.6 14 Sudeste 31 Sudeste 0 922.7 0.6 67
2019-08-20 01:00:00 25.7 13 Sudeste 23 Sudeste 0 922.5 0.8 54
2019-08-20 00:00:00 27.1 3 Este 13 Noroeste 0 922.5 1.2 23
2019-08-19 23:00:00 27.1 8 Noroeste 26 Noroeste 0 922.1 1.2 24
2019-08-19 22:00:00 28.1 6 Oeste 20 Oeste 0 921.7 0.7 26
2019-08-19 21:00:00 29.7 8 Oeste 30 Oeste 0 921.3 0.2 24
2019-08-19 20:00:00 31.9 18 Oeste 36 Oeste 0 920.9 -0.6 21
2019-08-19 19:00:00 33 15 Sudoeste 40 Sudoeste 0 921 -1 18
2019-08-19 18:00:00 33.5 21 Sudoeste 37 Sudoeste 0 921.1 -1.4 15
2019-08-19 17:00:00 34.1 23 Oeste 42 Sudoeste 0 921.5 -1.3 15
2019-08-19 16:00:00 34.3 10 Sudoeste 45 Sudoeste 0 922 -1 15
2019-08-19 15:00:00 32.9 16 Sudoeste 37 Sudoeste 0 922.5 -0.7 15
2019-08-19 14:00:00 31.6 14 Sudoeste 40 Sudoeste 0 922.8 -0.3 19
2019-08-19 13:00:00 29.8 17 Sudoeste 36 Sudoeste 0 923 0 26
2019-08-19 12:00:00 27.8 10 Sur 23 Sudoeste 0 923.2 0.4 31
2019-08-19 11:00:00 25.1 8 Sur 16 Sudoeste 0 923.1 0.4 38
2019-08-19 10:00:00 22.9 6 Sudoeste 15 Sudoeste 0 923 0.7 45
2019-08-19 09:00:00 20.8 7 Sur 15 Sudeste 0 922.8 0.9 46
2019-08-19 08:00:00 19.5 8 Sudeste 12 Sudeste 0 922.7 0.7 43
2019-08-19 07:00:00 20 5 Sudeste 12 Oeste 0 922.3 -0.1 43
2019-08-19 06:00:00 20 10 Sudoeste 21 Sudoeste 0 921.9 -0.5 44
2019-08-19 05:00:00 20.3 8 Sudoeste 17 Sur 0 922 -0.8 32
2019-08-19 04:00:00 20.9 11 Sudoeste 20 Sudoeste 0 922.4 -0.1 31
2019-08-19 03:00:00 22.6 8 Sudoeste 17 Sudoeste 0 922.4 0.3 28
2019-08-19 02:00:00 23.7 8 Sur 15 Sudoeste 0 922.8 0.9 25
2019-08-19 01:00:00 24.5 9 Sudoeste 22 Oeste 0 922.5 1.4 22
2019-08-19 00:00:00 25.8 9 Oeste 24 Oeste 0 922.1 1.4 19
2019-08-18 23:00:00 27.1 12 Oeste 30 Oeste 0 921.9 1.4 15
2019-08-18 22:00:00 28.7 10 Oeste 28 Oeste 0 921.1 0.7 15
2019-08-18 21:00:00 30.7 12 Oeste 30 Oeste 0 920.7 0.3 14
2019-08-18 20:00:00 32.9 18 Oeste 41 Sudoeste 0 920.5 0 12
2019-08-18 19:00:00 34.4 23 Oeste 46 Oeste 0 920.4 -0.4 10
2019-08-18 18:00:00 35.6 21 Oeste 51 Oeste 0 920.4 -0.9 10
2019-08-18 17:00:00 36.1 23 Sudoeste 48 Sudoeste 0 920.5 -1.3 10
2019-08-18 16:00:00 36.4 24 Sudoeste 46 Oeste 0 920.8 -1.6 11
2019-08-18 15:00:00 35.2 19 Sudoeste 41 Oeste 0 921.3 -1.3 12
2019-08-18 14:00:00 34.3 21 Sudoeste 42 Sudoeste 0 921.8 -0.6 12
2019-08-18 13:00:00 32.6 19 Oeste 38 Sudoeste 0 922.4 0.3 14
2019-08-18 12:00:00 31 14 Sudoeste 31 Sudoeste 0 922.6 0.9 15
2019-08-18 11:00:00 28 10 Sudoeste 19 Sudoeste 0 922.4 1 22
2019-08-18 10:00:00 25.4 9 Sur 16 Sur 0 922.1 1 26
2019-08-18 09:00:00 22.8 8 Sudeste 16 Sudeste 0 921.7 0.9 30
2019-08-18 08:00:00 21.3 9 Sudeste 17 Sur 0 921.4 0.4 32
2019-08-18 07:00:00 22 8 Sur 19 Sudeste 0 921.1 0 30
2019-08-18 06:00:00 22.4 9 Sudeste 19 Sudeste 0 920.8 -0.5 28
2019-08-18 05:00:00 23 13 Sudeste 21 Sur 0 921 -0.7 29
2019-08-18 04:00:00 24.2 10 Sudeste 17 Sudeste 0 921.1 -0.5 23
2019-08-18 03:00:00 24.9 5 Sur 8 Sur 0 921.3 -0.3 23
2019-08-18 02:00:00 25.4 2 Sudeste 5 Norte 0 921.7 0.2 24
2019-08-18 01:00:00 28 3 Norte 6 Norte 0 921.6 0.4 20
2019-08-18 00:00:00 28.7 0 Calma 10 Noroeste 0 921.6 0.8 19
2019-08-17 23:00:00 29.4 5 Noroeste 12 Oeste 0 921.5 0.7 17
2019-08-17 22:00:00 31.3 8 Oeste 24 Oeste 0 921.2 0 14
2019-08-17 21:00:00 33.2 8 Oeste 21 Oeste 0 920.8 -0.8 13
2019-08-17 20:00:00 35 17 Sudoeste 33 Sudoeste 0 920.8 -1.2 11
2019-08-17 19:00:00 36.7 15 Sudoeste 62 Sur 0 921.2 -1.3 10
2019-08-17 18:00:00 37.9 13 Oeste 35 Sudoeste 0 921.6 -1.7 10
2019-08-17 17:00:00 37.7 21 Sudoeste 42 Sudoeste 0 922 -1.9 11
2019-08-17 16:00:00 37.3 17 Sudoeste 55 Sudoeste 0 922.5 -1.8 12
2019-08-17 15:00:00 36.1 14 Sudoeste 33 Sudoeste 0 923.3 -1.3 12
2019-08-17 14:00:00 34.4 17 Sudoeste 44 Sudoeste 0 923.9 -0.8 15
2019-08-17 13:00:00 33.1 12 Sudoeste 28 Sudoeste 0 924.3 -0.3 16
2019-08-17 12:00:00 30.9 10 Sur 23 Sur 0 924.6 0.3 19
2019-08-17 11:00:00 27.8 9 Sur 19 Sur 0 924.7 0.6 26
2019-08-17 10:00:00 24.8 9 Sur 23 Sudeste 0 924.6 0.7 34
2019-08-17 09:00:00 21.9 14 Sudeste 22 Sur 0 924.3 0.8 50
2019-08-17 08:00:00 20.8 11 Sudeste 17 Sudeste 0 924.1 0.4 61
2019-08-17 07:00:00 21.2 10 Sudeste 23 Sudeste 0 923.9 0.1 54
2019-08-17 06:00:00 21.9 11 Sudeste 19 Sudeste 0 923.5 -0.4 53
2019-08-17 05:00:00 22.5 13 Sudeste 22 Sudeste 0 923.7 0 49
2019-08-17 04:00:00 23.6 10 Sudeste 20 Sudeste 0 923.8 -0.1 48
2019-08-17 03:00:00 25.1 10 Sudeste 16 Sudeste 0 923.9 0.2 26
2019-08-17 02:00:00 26.5 8 Sudoeste 15 Sur 0 923.7 -0.1 25
2019-08-17 01:00:00 27.3 9 Sudoeste 15 Sudoeste 0 923.9 0.7 24
2019-08-17 00:00:00 28.5 9 Sudoeste 14 Oeste 0 923.7 0.8 21
2019-08-16 23:00:00 29.2 5 Oeste 11 Noroeste 0 923.8 1.2 19
2019-08-16 22:00:00 30.6 2 Noroeste 12 Noroeste 0 923.2 0.3 17
2019-08-16 21:00:00 32.7 6 Noroeste 23 Noroeste 0 922.9 -0.4 15
2019-08-16 20:00:00 34.3 9 Oeste 28 Noroeste 0 922.6 -1.2 15
2019-08-16 19:00:00 35.4 14 Oeste 30 Oeste 0 922.9 -1.3 13
2019-08-16 18:00:00 36.8 13 Oeste 36 Sudoeste 0 923.3 -1.4 12
2019-08-16 17:00:00 36.5 16 Oeste 35 Oeste 0 923.8 -1.4 12
2019-08-16 16:00:00 35.6 11 Sudoeste 38 Sudoeste 0 924.2 -1.5 14
2019-08-16 15:00:00 34.7 10 Sudoeste 27 Sur 0 924.7 -1.3 15
2019-08-16 14:00:00 32.6 10 Sudoeste 32 Sudeste 0 925.2 -0.7 20
2019-08-16 13:00:00 30.8 10 Sudeste 21 Sudoeste 0 925.7 -0.3 25
2019-08-16 12:00:00 28.3 10 Sur 22 Sudeste 0 926 0.2 30
2019-08-16 11:00:00 25.7 14 Sudeste 29 Sudeste 0 925.9 0.5 39
2019-08-16 10:00:00 23.2 18 Sudeste 33 Sudeste 0 926 0.9 47
2019-08-16 09:00:00 21.8 15 Sudeste 29 Sudeste 0 925.8 0.8 51
2019-08-16 08:00:00 21.2 14 Sudeste 22 Sudeste 0 925.4 0.6 54
2019-08-16 07:00:00 21.8 10 Sudeste 23 Este 0 925.1 0.2 54
2019-08-16 06:00:00 22.3 9 Este 32 Sudeste 0 925 -0.1 54
2019-08-16 05:00:00 22.4 16 Sudeste 33 Sudeste 0 924.8 -0.6 55
2019-08-16 04:00:00 22.9 14 Sudeste 32 Sudeste 0 924.9 -0.2 55
2019-08-16 03:00:00 24 17 Sudeste 33 Sudeste 0 925.1 0.4 52
2019-08-16 02:00:00 25.1 15 Sudeste 36 Este 0 925.4 0.5 45
2019-08-16 01:00:00 25.6 5 Norte 26 Noroeste 0 925.1 0.5 22
2019-08-16 00:00:00 27.1 6 Sur 13 Sudoeste 0 924.7 0.4 22
2019-08-15 23:00:00 28.6 0 Calma 5 Sudoeste 0 924.9 0.7 21
2019-08-15 22:00:00 29.6 4 Sudoeste 12 Sudoeste 0 924.6 0.3 17
2019-08-15 21:00:00 31.6 5 Sudoeste 17 Oeste 0 924.3 -0.1 15
2019-08-15 20:00:00 33.2 8 Sudoeste 24 Noroeste 0 924.2 -0.6 13
2019-08-15 19:00:00 34.6 13 Sudoeste 25 Oeste 0 924.3 -1 12
2019-08-15 18:00:00 34.8 7 Norte 28 Noroeste 0 924.4 -1.1 12
2019-08-15 17:00:00 35.1 8 Noroeste 33 Noroeste 0 924.8 -1.3 12
2019-08-15 16:00:00 34 10 Noroeste 24 Noroeste 0 925.3 -1.2 13
2019-08-15 15:00:00 33.9 7 Noroeste 21 Oeste 0 925.5 -1.3 12
2019-08-15 14:00:00 32.1 5 Norte 19 Oeste 0 926.1 -0.9 15
2019-08-15 13:00:00 30.4 5 Noroeste 14 Sudoeste 0 926.5 -0.3 18
2019-08-15 12:00:00 28.4 5 Sudoeste 12 Sudeste 0 926.8 0.3 24
2019-08-15 11:00:00 26 4 Sur 15 Sudoeste 0 927 0.9 30
2019-08-15 10:00:00 23.7 2 Sur 13 Sudeste 0 926.8 1.1 36
2019-08-15 09:00:00 21.7 8 Sudeste 13 Sudeste 0 926.5 1 45
2019-08-15 08:00:00 20.4 4 Este 14 Sudeste 0 926.1 0.6 47
2019-08-15 07:00:00 19.9 10 Sudeste 21 Sur 0 925.7 0.1 47
2019-08-15 06:00:00 20.9 10 Sudeste 23 Sudeste 0 925.5 -0.3 45
2019-08-15 05:00:00 22 6 Sudeste 18 Sudeste 0 925.5 -0.5 25
2019-08-15 04:00:00 21.7 4 Sudeste 10 Sudeste 0 925.6 -0.3 25
2019-08-15 03:00:00 22.6 3 Sudeste 8 Este 0 925.8 -0.3 24
2019-08-15 02:00:00 24.7 2 Nordeste 9 Sudeste 0 926 -0.1 22
2019-08-15 01:00:00 25 0 Calma 5 Oeste 0 925.9 0.3 21
2019-08-15 00:00:00 25.5 2 Sudoeste 5 Oeste 0 926.1 0.7 20
2019-08-14 23:00:00 26.3 2 Sudoeste 5 Oeste 0 926.1 1 19
2019-08-14 22:00:00 27.4 5 Oeste 8 Noroeste 0 925.6 0.2 17
2019-08-14 21:00:00 29.7 5 Noroeste 14 Oeste 0 925.4 -0.1 15
2019-08-14 20:00:00 30.9 9 Noroeste 24 Noroeste 0 925.1 -0.8 13
2019-08-14 19:00:00 31.8 8 Noroeste 26 Noroeste 0 925.4 -0.8 13
2019-08-14 18:00:00 32.7 12 Noroeste 28 Noroeste 0 925.5 -1.3 13
2019-08-14 17:00:00 32.2 7 Noroeste 31 Noroeste 0 925.9 -1.4 13
2019-08-14 16:00:00 31.7 9 Norte 25 Noroeste 0 926.2 -1.4 14
2019-08-14 15:00:00 30.4 9 Noroeste 29 Sudoeste 0 926.8 -1.1 15
2019-08-14 14:00:00 29.8 7 Sudoeste 27 Sudoeste 0 927.3 -0.4 19
2019-08-14 13:00:00 27.4 4 Oeste 14 Oeste 0 927.6 -0.1 26
2019-08-14 12:00:00 24.5 3 Norte 14 Sudeste 0 927.9 0.3 39
2019-08-14 11:00:00 23.3 7 Sudeste 17 Sudeste 0 927.7 0.6 51
2019-08-14 10:00:00 20.9 8 Sudeste 14 Sudeste 0 927.7 0.9 65
2019-08-14 09:00:00 19 6 Este 17 Sudeste 0 927.6 1 74
2019-08-14 08:00:00 18 9 Sudeste 15 Sudeste 0 927.1 0.5 77
2019-08-14 07:00:00 18.3 7 Este 14 Este 0 926.8 0.2 74
2019-08-14 06:00:00 19 8 Este 19 Sudeste 0 926.6 -0.3 72
2019-08-14 05:00:00 19.5 9 Este 19 Este 0 926.6 0 62
2019-08-14 04:00:00 20.3 10 Este 20 Este 0 926.6 0.3 51
2019-08-14 03:00:00 21.2 6 Este 14 Nordeste 0 926.9 0.8 19
2019-08-14 02:00:00 20.8 3 Norte 14 Nordeste 0 926.6 0.6 20
2019-08-14 01:00:00 22.2 11 Nordeste 30 Norte 0 926.3 0.8 19
2019-08-14 00:00:00 22.5 2 Este 5 Sudeste 0 926.1 0.9 25
2019-08-13 23:00:00 23.2 2 Nordeste 5 Norte 0 926 1 22
2019-08-13 22:00:00 25.1 3 Norte 12 Noroeste 0 925.5 0.5 18
2019-08-13 21:00:00 26.6 7 Noroeste 20 Oeste 0 925.2 0.3 17
2019-08-13 20:00:00 27.8 8 Noroeste 26 Noroeste 0 925 -0.2 15
2019-08-13 19:00:00 29.3 12 Noroeste 30 Noroeste 0 925 -0.6 13
2019-08-13 18:00:00 29.8 8 Noroeste 27 Oeste 0 924.9 -1.2 14
2019-08-13 17:00:00 29.3 9 Oeste 28 Noroeste 0 925.2 -1.1 17
2019-08-13 16:00:00 29.7 7 Oeste 23 Noroeste 0 925.6 -1.1 19
2019-08-13 15:00:00 27.4 8 Noroeste 28 Norte 0 926.1 -0.7 23
2019-08-13 14:00:00 27.3 5 Este 24 Norte 0 926.3 -0.5 22
2019-08-13 13:00:00 26.1 5 Sudeste 15 Sudoeste 0 926.7 -0.1 34
2019-08-13 12:00:00 23.1 7 Nordeste 22 Sudeste 0 926.8 0.3 46
2019-08-13 11:00:00 22.3 9 Sudeste 20 Sudeste 0 926.8 0.6 47
2019-08-13 10:00:00 19.1 5 Nordeste 15 Nordeste 0 926.8 0.8 47
2019-08-13 09:00:00 17.6 7 Nordeste 16 Nordeste 0 926.5 0.7 47
2019-08-13 08:00:00 15.4 4 Nordeste 10 Noroeste 0 926.2 0.4 48
2019-08-13 07:00:00 15.6 5 Norte 11 Norte 0 926 -0.2 45
2019-08-13 06:00:00 16.7 6 Norte 14 Nordeste 0 925.8 -0.5 41
2019-08-13 05:00:00 17.9 6 Nordeste 11 Nordeste 0 925.8 -0.7 39
2019-08-13 04:00:00 18.1 6 Nordeste 18 Este 0 926.2 0.1 37
2019-08-13 03:00:00 19.1 9 Nordeste 16 Este 0 926.3 0.6 33
2019-08-13 02:00:00 19.1 7 Norte 16 Nordeste 0 926.5 1.1 31
2019-08-13 01:00:00 19.4 8 Norte 23 Norte 0 926.1 1.2 31
2019-08-13 00:00:00 20.9 9 Nordeste 20 Norte 0 925.7 1.4 23
2019-08-12 23:00:00 21.2 10 Norte 19 Norte 0 925.4 1.6 19
2019-08-12 22:00:00 22.7 9 Norte 19 Norte 0 924.9 1.1 17
2019-08-12 21:00:00 24.4 10 Noroeste 25 Noroeste 0 924.3 0.3 15
2019-08-12 20:00:00 25.8 9 Noroeste 30 Norte 0 923.8 -0.6 13
2019-08-12 19:00:00 26.8 14 Norte 36 Noroeste 0 923.8 -0.9 12
2019-08-12 18:00:00 28.5 13 Noroeste 31 Noroeste 0 924 -1.1 12
2019-08-12 17:00:00 28.2 8 Norte 32 Noroeste 0 924.4 -1.2 12
2019-08-12 16:00:00 26.7 12 Norte 30 Norte 0 924.7 -1.1 14
2019-08-12 15:00:00 25.8 11 Noroeste 31 Noroeste 0 925.1 -1 18
2019-08-12 14:00:00 24.4 13 Norte 30 Norte 0 925.6 -0.3 20
2019-08-12 13:00:00 23.1 15 Nordeste 43 Noroeste 0 925.8 0.5 24
2019-08-12 12:00:00 21.4 20 Norte 42 Norte 0 926.1 1.3 29
2019-08-12 11:00:00 20.3 22 Norte 42 Norte 0 925.9 1.7 32
2019-08-12 10:00:00 17.9 15 Norte 26 Norte 0 925.3 1.5 47
2019-08-12 09:00:00 16 10 Noroeste 21 Norte 0 924.8 1.1 50
2019-08-12 08:00:00 14.8 9 Norte 18 Norte 0 924.2 0.7 50
2019-08-12 07:00:00 15.6 6 Noroeste 15 Noroeste 0 923.8 0.2 42
2019-08-12 06:00:00 16.2 6 Noroeste 13 Noroeste 0 923.7 0 34
2019-08-12 05:00:00 17.4 5 Noroeste 14 Noroeste 0 923.5 -0.5 31
2019-08-12 04:00:00 18.5 6 Noroeste 19 Noroeste 0 923.6 -0.6 28
2019-08-12 03:00:00 19.3 9 Noroeste 24 Oeste 0 923.7 -0.4 27
2019-08-12 02:00:00 20.3 10 Oeste 21 Oeste 0 924 0.3 26
2019-08-12 01:00:00 21.2 9 Oeste 25 Oeste 0 924.2 0.9 26
2019-08-12 00:00:00 21.9 11 Oeste 25 Oeste 0 924.1 1.4 26
2019-08-11 23:00:00 22.8 10 Oeste 36 Oeste 0 923.7 1.6 22
2019-08-11 22:00:00 23.7 9 Oeste 26 Oeste 0 923.3 1 19
2019-08-11 21:00:00 25.2 9 Oeste 37 Noroeste 0 922.7 0.5 13
2019-08-11 20:00:00 28 16 Noroeste 37 Noroeste 0 922.1 -0.3 12
2019-08-11 19:00:00 29 20 Oeste 48 Oeste 0 922.3 -0.5 18
2019-08-11 18:00:00 30.8 13 Noroeste 41 Sudoeste 0 922.2 -1.3 16
2019-08-11 17:00:00 31.1 19 Oeste 37 Oeste 0 922.4 -1.2 15
2019-08-11 16:00:00 30.8 18 Sudoeste 40 Sudoeste 0 922.8 -1.2 15
2019-08-11 15:00:00 30.1 18 Oeste 39 Noroeste 0 923.5 -0.6 14
2019-08-11 14:00:00 28.8 19 Oeste 38 Oeste 0 923.6 -0.3 17
2019-08-11 13:00:00 27.7 18 Oeste 38 Sudoeste 0 924 0.3 20
2019-08-11 12:00:00 26.4 21 Sudoeste 34 Sudoeste 0 924.1 0.5 24
2019-08-11 11:00:00 24.5 10 Sudoeste 22 Sudoeste 0 923.9 0.7 28
2019-08-11 10:00:00 22.1 8 Sur 15 Sudeste 0 923.7 0.6 31
2019-08-11 09:00:00 20.7 5 Sur 11 Sur 0 923.6 0.8 35
2019-08-11 08:00:00 19.5 0 Calma 32 Oeste 0 923.2 0.8 37
2019-08-11 07:00:00 20.4 14 Oeste 32 Oeste 0 923.1 0.4 34
2019-08-11 06:00:00 20.9 13 Oeste 27 Oeste 0 922.8 -0.2 32
2019-08-11 05:00:00 20.3 11 Oeste 21 Sudoeste 0 922.4 -1 31
2019-08-11 04:00:00 21.6 6 Sur 13 Sur 0 922.7 -1 26
2019-08-11 03:00:00 22.5 5 Sudoeste 10 Sudoeste 0 923 -0.8 26
2019-08-11 02:00:00 23.3 3 Noroeste 9 Noroeste 0 923.4 -0.3 26
2019-08-11 01:00:00 24.2 4 Noroeste 18 Oeste 0 923.7 0.4 24
2019-08-11 00:00:00 25.1 8 Oeste 19 Oeste 0 923.8 0.7 24
2019-08-10 23:00:00 26.3 9 Noroeste 21 Noroeste 0 923.7 0.8 26
2019-08-10 22:00:00 27.9 7 Oeste 18 Oeste 0 923.3 0 25
2019-08-10 21:00:00 30.2 8 Noroeste 31 Sudoeste 0 923.1 -0.6 23
2019-08-10 20:00:00 31.7 14 Sudoeste 35 Sudoeste 0 922.9 -1.6 21
2019-08-10 19:00:00 33.1 18 Sudoeste 43 Sudoeste 0 923.3 -2.1 17
2019-08-10 18:00:00 34.3 8 Sur 35 Sudoeste 0 923.7 -2.2 19
2019-08-10 17:00:00 32.9 15 Sudoeste 31 Sudoeste 0 924.5 -1.8 23
2019-08-10 16:00:00 32 16 Oeste 33 Sudoeste 0 925.4 -1.2 24
2019-08-10 15:00:00 30.3 16 Sudoeste 33 Sudoeste 0 925.9 -1 26
2019-08-10 14:00:00 29 15 Sudoeste 29 Oeste 0 926.3 -0.6 30
2019-08-10 13:00:00 27.3 7 Sur 30 Sur 0 926.6 -0.4 33
2019-08-10 12:00:00 24.9 6 Sudoeste 19 Oeste 0 926.9 0.3 41
2019-08-10 11:00:00 22.6 4 Oeste 10 Noroeste 0 926.9 0.5 49
2019-08-10 10:00:00 20.8 5 Sudoeste 14 Sudoeste 0 927 0.9 56
2019-08-10 09:00:00 18.9 5 Sur 12 Sur 0 926.6 0.9 64
2019-08-10 08:00:00 17.8 4 Sudoeste 9 Sudoeste 0 926.4 0.8 68
2019-08-10 07:00:00 18.4 4 Sudoeste 11 Noroeste 0 926.1 0.6 67
2019-08-10 06:00:00 18.8 5 Oeste 15 Oeste 0 925.7 0.1 67
2019-08-10 05:00:00 19.4 5 Oeste 13 Noroeste 0 925.6 -0.1 69
2019-08-10 04:00:00 19.9 8 Sudoeste 13 Sudoeste 0 925.5 -0.1 68
2019-08-10 03:00:00 20.8 6 Sudoeste 14 Sudoeste 0 925.6 0.3 68
2019-08-10 02:00:00 21.3 8 Sudoeste 14 Oeste 0 925.7 0.4 67
2019-08-10 01:00:00 22 6 Oeste 18 Noroeste 0 925.6 0.9 64
2019-08-10 00:00:00 22.9 8 Noroeste 28 Noroeste 0 925.3 1.4 62
2019-08-09 23:00:00 24.2 12 Noroeste 36 Oeste 0 925.3 1.9 60
2019-08-09 22:00:00 26.2 14 Oeste 47 Oeste 0 924.7 1.6 55
2019-08-09 21:00:00 29.1 16 Oeste 41 Oeste 0 923.9 0.9 35
2019-08-09 20:00:00 31.1 15 Oeste 48 Oeste 0 923.4 0.1 33
2019-08-09 19:00:00 32.6 21 Sudoeste 42 Oeste 0 923.1 -0.6 24
2019-08-09 18:00:00 32.8 25 Sudoeste 51 Oeste 0 923 -1.3 23
2019-08-09 17:00:00 33.7 21 Oeste 47 Sudoeste 0 923.3 -1.3 23
2019-08-09 16:00:00 33.6 16 Oeste 37 Oeste 0 923.7 -1.2 25
2019-08-09 15:00:00 32.4 14 Sudoeste 40 Oeste 0 924.3 -0.4 27
2019-08-09 14:00:00 30.9 14 Oeste 48 Oeste 0 924.6 0.1 29
2019-08-09 13:00:00 29.3 19 Oeste 39 Oeste 0 924.9 0.7 32
2019-08-09 12:00:00 27.9 18 Oeste 35 Sudoeste 0 924.7 0.8 36
2019-08-09 11:00:00 25.6 10 Sudoeste 22 Oeste 0 924.5 0.6 41
2019-08-09 10:00:00 23.6 9 Sur 19 Sur 0 924.2 0.8 50
2019-08-09 09:00:00 21.8 5 Sur 12 Sudoeste 0 923.9 0.9 58
2019-08-09 08:00:00 20.4 8 Sudoeste 12 Sudoeste 0 923.9 0.9 61
2019-08-09 07:00:00 21 7 Sudoeste 13 Sudoeste 0 923.4 0.3 58
2019-08-09 06:00:00 21.9 7 Sur 13 Sudoeste 0 923 0.2 52
2019-08-09 05:00:00 22.5 7 Sur 15 Sur 0 923 0.4 45
2019-08-09 04:00:00 23 8 Sur 15 Sur 0 923.1 0.8 40
2019-08-09 03:00:00 24.3 6 Sudoeste 15 Oeste 0 922.8 0.7 36
2019-08-09 02:00:00 25.8 7 Oeste 16 Oeste 0 922.6 0.6 33
2019-08-09 01:00:00 26.2 6 Oeste 15 Oeste 0 922.3 0.8 32
2019-08-09 00:00:00 27.3 8 Oeste 27 Oeste 0 922.1 1.1 29
2019-08-08 23:00:00 28.7 12 Oeste 26 Oeste 0 922 1 26
2019-08-08 22:00:00 29.9 9 Oeste 23 Oeste 0 921.5 0.4 25
2019-08-08 21:00:00 31.7 10 Oeste 30 Oeste 0 921 -0.5 23
2019-08-08 20:00:00 32.8 16 Sudoeste 37 Oeste 0 921 -1 20
2019-08-08 19:00:00 34.3 18 Oeste 30 Oeste 0 921.1 -1.4 18
2019-08-08 18:00:00 34.6 14 Sudoeste 41 Sudoeste 0 921.5 -1.3 19
2019-08-08 17:00:00 33.9 22 Sudoeste 43 Sudoeste 0 922 -1.1 20
2019-08-08 16:00:00 33 15 Sudoeste 36 Oeste 0 922.5 -1 22
2019-08-08 15:00:00 32 11 Sudoeste 35 Oeste 0 922.8 -1 25
2019-08-08 14:00:00 30.3 9 Sudoeste 27 Oeste 0 923.1 -0.6 28
2019-08-08 13:00:00 28.6 10 Sudoeste 26 Sudoeste 0 923.5 -0.2 31
2019-08-08 12:00:00 26.2 8 Sudoeste 24 Oeste 0 923.8 0.4 37
2019-08-08 11:00:00 24.4 9 Noroeste 21 Oeste 0 923.7 0.5 45
2019-08-08 10:00:00 22.2 7 Sudoeste 15 Sudoeste 0 923.7 0.7 53
2019-08-08 09:00:00 20 7 Sudeste 13 Sudeste 0 923.4 0.5 57
2019-08-08 08:00:00 18.8 7 Sudeste 11 Sudeste 0 923.2 0.4 59
2019-08-08 07:00:00 19 6 Sudeste 9 Sudeste 0 923 -0.2 57
2019-08-08 06:00:00 19.7 3 Noroeste 14 Noroeste 0 922.9 -0.2 58
2019-08-08 05:00:00 20.1 6 Noroeste 15 Noroeste 0 922.8 -0.4 56
2019-08-08 04:00:00 20.7 10 Oeste 26 Oeste 0 923.2 -0.1 54
2019-08-08 03:00:00 20.5 8 Oeste 17 Oeste 0 923.1 -0.2 53
2019-08-08 02:00:00 21.5 8 Oeste 24 Oeste 0 923.2 0.1 48
2019-08-08 01:00:00 21.9 9 Oeste 25 Oeste 0 923.3 0.6 46
2019-08-08 00:00:00 22.4 9 Oeste 21 Oeste 0 923.3 1.1 44
2019-08-07 23:00:00 23.1 7 Noroeste 20 Oeste 0 923.1 1.1 41
2019-08-07 22:00:00 23.9 12 Oeste 24 Oeste 0 922.7 0 39
2019-08-07 21:00:00 25 10 Oeste 30 Noroeste 0 922.2 0.4 35
2019-08-07 20:00:00 25.8 12 Noroeste 35 Oeste 0 922 -0.7 31
2019-08-07 19:00:00 26.7 19 Oeste 36 Oeste 0 922.7 0 33
2019-08-07 18:00:00 27.7 12 Noroeste 32 Noroeste 0 921.8 -0.5 31
2019-08-07 17:00:00 28.3 16 Oeste 39 Noroeste 0 922.7 0.3 28
2019-08-07 16:00:00 28.1 13 Noroeste 36 Oeste 0 922.7 0.6 27
2019-08-07 15:00:00 30.5 16 Oeste 35 Sudoeste 0 922.3 0.4 22
2019-08-07 14:00:00 29.3 13 Oeste 33 Oeste 0 922.4 0.8 23
2019-08-07 13:00:00 28.3 12 Oeste 27 Sudoeste 0 922.1 0.9 27
2019-08-07 12:00:00 27.3 13 Oeste 24 Sudoeste 0 921.9 0.9 27
2019-08-07 11:00:00 26.4 10 Sudoeste 21 Sur 0 921.6 1.3 26
2019-08-07 10:00:00 23.8 10 Sur 21 Sudoeste 0 921.2 1.5 30
2019-08-07 09:00:00 21.9 4 Sur 14 Sur 0 921 1.2 27
2019-08-07 08:00:00 21.2 7 Sur 17 Sudeste 0 920.3 0.5 26
2019-08-07 07:00:00 21.2 10 Sudeste 20 Sudoeste 0 919.7 0 26
2019-08-07 06:00:00 22.9 8 Sur 22 Oeste 0 919.8 0 34
2019-08-07 05:00:00 23 9 Sudoeste 19 Sudoeste 0 919.8 0 29
2019-08-07 04:00:00 23.4 9 Sur 18 Sudoeste 0 919.7 -0.3 21
2019-08-07 03:00:00 24.9 8 Sur 26 Oeste 0 919.8 -0.3 25
2019-08-07 02:00:00 26.6 12 Oeste 28 Oeste 0 919.8 -0.2 23
2019-08-07 01:00:00 26.4 8 Oeste 22 Oeste 0 920 0.6 18
2019-08-07 00:00:00 27.3 10 Oeste 33 Oeste 0 920.1 1.1 12
2019-08-06 23:00:00 28.5 18 Oeste 29 Oeste 0 920 1.1 10
2019-08-06 22:00:00 29.1 12 Oeste 22 Oeste 0 919.4 0.5 11
2019-08-06 21:00:00 31.8 10 Oeste 26 Oeste 0 919 -0.6 10
2019-08-06 20:00:00 33.5 14 Sudoeste 43 Sudoeste 0 918.9 -1.1 9
2019-08-06 19:00:00 35.5 18 Sudoeste 37 Sudoeste 0 918.9 -1.7 8
2019-08-06 18:00:00 36.4 16 Sudoeste 40 Sur 0 919.6 -1.8 7
2019-08-06 17:00:00 36.2 21 Sudoeste 42 Sudoeste 0 920 -1.9 6
2019-08-06 16:00:00 35.7 20 Sudoeste 38 Sur 0 920.6 -1.5 8
2019-08-06 15:00:00 35.5 14 Sudoeste 44 Sudoeste 0 921.4 -1 8
2019-08-06 14:00:00 33.7 11 Sudoeste 30 Sudoeste 0 921.9 -0.9 9
2019-08-06 13:00:00 32.2 7 Oeste 31 Sudoeste 0 922.1 -0.6 11
2019-08-06 12:00:00 30.4 13 Sudoeste 25 Sudoeste 0 922.4 0 12
2019-08-06 11:00:00 28.2 12 Sudoeste 21 Oeste 0 922.8 0.9 16
2019-08-06 10:00:00 25.5 8 Sudoeste 17 Sudoeste 0 922.7 0.8 18
2019-08-06 09:00:00 22.4 9 Sur 17 Sur 0 922.4 0.5 22
2019-08-06 08:00:00 21.4 9 Sudeste 18 Sur 0 921.9 -0.2 23
2019-08-06 07:00:00 21 8 Sur 23 Sudeste 0 921.9 0.2 25
2019-08-06 06:00:00 21.5 11 Sudeste 23 Sudeste 0 921.9 0.3 24
2019-08-06 05:00:00 23.7 12 Sudeste 18 Sudeste 0 922.1 0.2 19
2019-08-06 04:00:00 26 9 Oeste 22 Oeste 0 921.7 0 15
2019-08-06 03:00:00 26 11 Oeste 24 Oeste 0 921.6 0.1 15
2019-08-06 02:00:00 26.8 12 Oeste 29 Oeste 0 921.9 0.6 16
2019-08-06 01:00:00 27.5 14 Oeste 27 Oeste 0 921.7 1 18
2019-08-06 00:00:00 28.6 10 Oeste 24 Oeste 0 921.5 1.2 16
2019-08-05 23:00:00 29.8 11 Oeste 23 Oeste 0 921.3 1.2 15
2019-08-05 22:00:00 31.1 2 Sudoeste 9 Noroeste 0 920.7 0.3 15
2019-08-05 21:00:00 33.1 7 Norte 27 Noroeste 0 920.3 -0.5 13
2019-08-05 20:00:00 34.5 12 Sudoeste 26 Sur 0 920.1 -1.3 11
2019-08-05 19:00:00 35.3 9 Noroeste 25 Sudoeste 0 920.4 -1.5 11
2019-08-05 18:00:00 37.1 15 Sudoeste 31 Sudoeste 0 920.8 -1.7 9
2019-08-05 17:00:00 37.1 8 Oeste 28 Sudoeste 0 921.4 -1.5 10
2019-08-05 16:00:00 36.1 11 Sudoeste 28 Sudoeste 0 921.9 -1.6 12
2019-08-05 15:00:00 34.8 9 Sudoeste 30 Oeste 0 922.5 -1.2 13
2019-08-05 14:00:00 33 8 Oeste 24 Oeste 0 922.9 -0.8 15
2019-08-05 13:00:00 32.1 9 Sudoeste 23 Oeste 0 923.5 -0.2 17
2019-08-05 12:00:00 29.6 4 Noroeste 19 Sudoeste 0 923.7 0.1 21
2019-08-05 11:00:00 27.4 6 Sudoeste 15 Sudoeste 0 923.7 0.2 25
2019-08-05 10:00:00 25.5 9 Sudoeste 16 Sur 0 923.7 0.7 27
2019-08-05 09:00:00 23.8 5 Sudoeste 13 Sur 0 923.6 0.6 28
2019-08-05 08:00:00 22.5 6 Sur 16 Sur 0 923.5 0.3 28
2019-08-05 07:00:00 23 9 Sur 16 Sur 0 923 0 25
2019-08-05 06:00:00 23.3 8 Sur 15 Sur 0 923 0 24
2019-08-05 05:00:00 23.3 6 Sur 14 Sudeste 0 923.2 0 24
2019-08-05 04:00:00 23.9 11 Sudeste 18 Sudeste 0 923 0 21
2019-08-05 03:00:00 25.7 7 Sudoeste 11 Sudoeste 0 923 0.3 21
2019-08-05 02:00:00 26.4 5 Oeste 12 Oeste 0 923.2 0.5 19
2019-08-05 01:00:00 27.5 4 Noroeste 10 Noroeste 0 923 0.9 16
2019-08-05 00:00:00 28 5 Noroeste 16 Oeste 0 922.7 1.2 13
2019-08-04 23:00:00 29.2 8 Oeste 17 Oeste 0 922.7 1.5 12
2019-08-04 22:00:00 30.2 8 Oeste 14 Oeste 0 922.1 1.1 12
2019-08-04 21:00:00 32.6 9 Oeste 25 Noroeste 0 921.5 0.2 11
2019-08-04 20:00:00 34.4 8 Oeste 29 Sudoeste 0 921.2 -0.3 10
2019-08-04 19:00:00 35.9 9 Oeste 29 Sudoeste 0 921 -1.1 10
2019-08-04 18:00:00 36.8 17 Sudoeste 35 Sudoeste 0 921.3 -1.3 10
2019-08-04 17:00:00 36.5 15 Sur 40 Sudoeste 0 921.5 -1.5 11
2019-08-04 16:00:00 35.9 14 Sur 40 Sudoeste 0 922.1 -1.3 11
2019-08-04 15:00:00 35 10 Sudoeste 33 Sudoeste 0 922.6 -0.9 11
2019-08-04 14:00:00 33.7 12 Sudoeste 30 Sudoeste 0 923 -0.4 12
2019-08-04 13:00:00 32.2 8 Sudoeste 28 Sudoeste 0 923.4 0 15
2019-08-04 12:00:00 30 9 Sudoeste 16 Oeste 0 923.5 0.4 20
2019-08-04 11:00:00 27.5 6 Sur 14 Sur 0 923.4 0.5 26
2019-08-04 10:00:00 25 6 Sur 17 Sudeste 0 923.4 0.8 36
2019-08-04 09:00:00 22.4 10 Sudeste 17 Sudeste 0 923.1 0.5 52
2019-08-04 08:00:00 20.9 9 Sudeste 18 Sudeste 0 922.9 0.7 61
2019-08-04 07:00:00 20.9 10 Sudeste 19 Sudeste 0 922.6 0.6 59
2019-08-04 06:00:00 21.8 9 Sudeste 19 Sudeste 0 922.6 0.7 52
2019-08-04 05:00:00 22.8 10 Sudeste 18 Sudeste 0 922.2 0.4 39
2019-08-04 04:00:00 24.1 7 Sudeste 13 Sudeste 0 922 0.2 20
2019-08-04 03:00:00 25.1 10 Sudeste 14 Sudeste 0 921.9 0.3 20
2019-08-04 02:00:00 25.6 5 Oeste 10 Oeste 0 921.8 0.5 19
2019-08-04 01:00:00 26.7 6 Noroeste 11 Noroeste 0 921.8 1.2 17
2019-08-04 00:00:00 27.9 5 Noroeste 15 Oeste 0 921.6 1.4 14
2019-08-03 23:00:00 29.1 7 Oeste 18 Oeste 0 921.3 1.2 13
2019-08-03 22:00:00 30.7 9 Oeste 20 Oeste 0 920.6 0.2 12
2019-08-03 21:00:00 33.1 9 Noroeste 30 Sudoeste 0 920.2 -0.6 12
2019-08-03 20:00:00 34.6 12 Sudoeste 32 Oeste 0 920.1 -1.3 10
2019-08-03 19:00:00 35.7 23 Sudoeste 41 Sudoeste 0 920.4 -1.6 9
2019-08-03 18:00:00 36.4 9 Oeste 35 Sudoeste 0 920.8 -1.7 10
2019-08-03 17:00:00 36.7 15 Sudoeste 33 Sudoeste 0 921.4 -1.5 10
2019-08-03 16:00:00 36.2 10 Sudoeste 27 Sudoeste 0 922 -1.4 10
2019-08-03 15:00:00 34.9 15 Sudoeste 28 Sudoeste 0 922.5 -0.9 12
2019-08-03 14:00:00 33.3 10 Sudoeste 27 Sudoeste 0 922.9 -0.5 14
2019-08-03 13:00:00 31.1 7 Oeste 19 Sudeste 0 923.4 0 17
2019-08-03 12:00:00 28.9 8 Sur 19 Sudeste 0 923.4 0.3 27
2019-08-03 11:00:00 26.3 11 Sudeste 26 Sudeste 0 923.4 0.6 33
2019-08-03 10:00:00 23.7 13 Sudeste 28 Sudeste 0 923.4 1 40
2019-08-03 09:00:00 22 14 Sudeste 28 Sudeste 0 923.1 0.8 45
2019-08-03 08:00:00 21 14 Sudeste 29 Sudeste 0 922.8 0.5 49
2019-08-03 07:00:00 21.2 14 Sudeste 27 Sudeste 0 922.4 0.1 50
2019-08-03 06:00:00 21.8 13 Sudeste 29 Sudeste 0 922.3 -0.3 49
2019-08-03 05:00:00 22.3 16 Sudeste 32 Sudeste 0 922.3 -0.5 48
2019-08-03 04:00:00 23 14 Sudeste 28 Sudeste 0 922.3 -0.4 48
2019-08-03 03:00:00 23.9 14 Sudeste 22 Sudeste 0 922.6 0.5 46
2019-08-03 02:00:00 24.7 11 Sudeste 31 Sudeste 0 922.8 0.7 40
2019-08-03 01:00:00 26.6 11 Sudeste 23 Sudeste 0 922.7 0.9 19
2019-08-03 00:00:00 28.1 4 Nordeste 9 Sudeste 0 922.1 0.5 17
2019-08-02 23:00:00 30.2 4 Nordeste 9 Nordeste 0 922.1 0.6 14
2019-08-02 22:00:00 31.1 5 Nordeste 10 Norte 0 921.8 0.2 14
2019-08-02 21:00:00 32.3 7 Norte 16 Norte 0 921.6 -0.4 13
2019-08-02 20:00:00 33.9 4 Noroeste 16 Sudoeste 0 921.5 -0.8 12
2019-08-02 19:00:00 35 6 Noroeste 25 Oeste 0 921.6 -1.1 10
2019-08-02 18:00:00 35.9 6 Noroeste 28 Sudoeste 0 922 -1.1 11
2019-08-02 17:00:00 34.9 10 Norte 29 Oeste 0 922.3 -1.1 12
2019-08-02 16:00:00 34.8 4 Sudoeste 31 Oeste 0 922.7 -1 12
2019-08-02 15:00:00 33.8 10 Oeste 30 Oeste 0 923.1 -0.6 13
2019-08-02 14:00:00 31.7 8 Noroeste 30 Oeste 0 923.4 -0.3 14
2019-08-02 13:00:00 31.4 12 Sudoeste 24 Sudoeste 0 923.7 0.2 15
2019-08-02 12:00:00 28.2 8 Sudoeste 20 Sudoeste 0 923.7 0.7 22
2019-08-02 11:00:00 25.6 7 Sur 18 Sudoeste 0 923.7 1.2 27
2019-08-02 10:00:00 23.2 10 Sur 18 Sur 0 923.5 1.2 27
2019-08-02 09:00:00 21.1 8 Sudeste 23 Sudeste 0 923 1.1 29
2019-08-02 08:00:00 19.5 10 Sudeste 18 Sur 0 922.5 0.5 30
2019-08-02 07:00:00 19.5 8 Sudeste 17 Sudeste 0 922.3 0.5 30
2019-08-02 06:00:00 21 5 Sudeste 10 Sudoeste 0 921.9 0.1 28
2019-08-02 05:00:00 22.2 6 Sudoeste 9 Oeste 0 922 -0.1 26
2019-08-02 04:00:00 23.2 4 Sudoeste 12 Sudoeste 0 921.8 -0.3 24
2019-08-02 03:00:00 23.7 10 Sudoeste 17 Sudoeste 0 921.8 0 23
2019-08-02 02:00:00 24.7 12 Oeste 21 Oeste 0 922.1 0.6 21
2019-08-02 01:00:00 26 8 Oeste 19 Oeste 0 922.1 1.3 20
2019-08-02 00:00:00 26.9 9 Oeste 18 Oeste 0 921.8 1.5 19
2019-08-01 23:00:00 27.1 8 Oeste 18 Oeste 0 921.5 1.7 16
2019-08-01 22:00:00 28.8 7 Oeste 20 Oeste 0 920.8 1.1 14
2019-08-01 21:00:00 31 8 Oeste 28 Oeste 0 920.3 0.4 13
2019-08-01 20:00:00 32.6 17 Oeste 38 Oeste 0 919.8 -0.5 12
2019-08-01 19:00:00 34 14 Oeste 35 Sudoeste 0 919.7 -1.1 13
2019-08-01 18:00:00 35.3 8 Sudoeste 34 Sudoeste 0 919.9 -1.2 14
2019-08-01 17:00:00 34.5 11 Oeste 34 Oeste 0 920.3 -1.2 15
2019-08-01 16:00:00 33.7 13 Sudoeste 38 Oeste 0 920.8 -1 16
2019-08-01 15:00:00 32.4 18 Oeste 33 Sudoeste 0 921.1 -0.5 19
2019-08-01 14:00:00 30.9 11 Sudoeste 28 Sudoeste 0 921.5 -0.1 23
2019-08-01 13:00:00 28.8 10 Sur 27 Sudeste 0 921.8 0.5 33
2019-08-01 12:00:00 27 12 Sudeste 26 Sudeste 0 921.6 0.4 41
2019-08-01 11:00:00 24.1 13 Sudeste 29 Sudeste 0 921.6 0.8 52
2019-08-01 10:00:00 21.6 17 Sudeste 33 Sudeste 0 921.3 0.7 61
2019-08-01 09:00:00 19.2 17 Sudeste 33 Sudeste 0 921.2 0.7 70
2019-08-01 08:00:00 17.8 17 Sudeste 33 Sudeste 0 920.8 0.3 75
2019-08-01 07:00:00 18.1 20 Sudeste 39 Sudeste 0 920.6 0.2 72
2019-08-01 06:00:00 18.7 21 Sudeste 42 Sudeste 0 920.5 0.1 71
2019-08-01 05:00:00 18.9 23 Sudeste 50 Sur 0 920.5 -0.1 71
2019-08-01 04:00:00 19.6 24 Sudeste 45 Sudeste 0 920.4 -0.7 67
2019-08-01 03:00:00 20.2 27 Sudeste 52 Sudeste 0 920.4 -0.7 64
2019-08-01 02:00:00 20.8 27 Sudeste 51 Sudeste 0 920.6 -0.3 62
2019-08-01 01:00:00 21.9 26 Sudeste 54 Sudeste 0 921.1 0.8 58
2019-08-01 00:00:00 23.3 22 Sudeste 45 Sudeste 0 921.1 0.9 58
2019-07-31 23:00:00 24.8 24 Sudeste 46 Sudeste 0 920.9 0.5 53
2019-07-31 22:00:00 26.4 25 Sudeste 52 Sudeste 0 920.3 0 48
2019-07-31 21:00:00 28.1 24 Sudeste 48 Sudeste 0 920.2 -0.2 42
2019-07-31 20:00:00 29.6 27 Sudeste 51 Sudeste 0 920.4 -0.6 38
2019-07-31 19:00:00 32.4 22 Sudeste 49 Este 0 920.3 -1.4 29
2019-07-31 18:00:00 34.4 21 Sudeste 49 Sudeste 0 920.4 -1.7 23
2019-07-31 17:00:00 34.4 18 Sudeste 40 Sur 0 921 -1.7 23
2019-07-31 16:00:00 33.1 17 Sudeste 42 Sudeste 0 921.7 -1.3 24
2019-07-31 15:00:00 32.2 20 Sudeste 52 Sudeste 0 922.1 -1.4 26
2019-07-31 14:00:00 30.4 21 Sudeste 42 Este 0 922.7 -0.9 28
2019-07-31 13:00:00 28.6 21 Sudeste 42 Este 0 923 -0.4 31
2019-07-31 12:00:00 26.6 22 Sudeste 41 Sudeste 0 923.5 0.7 37
2019-07-31 11:00:00 24.6 19 Sudeste 37 Sudeste 0 923.6 0.8 49
2019-07-31 10:00:00 22.6 17 Sudeste 33 Sudeste 0 923.4 0.5 55
2019-07-31 09:00:00 20.8 15 Sudeste 35 Este 0 922.8 -0.3 64
2019-07-31 08:00:00 19.8 12 Este 37 Sudeste 0 922.8 -0.1 68
2019-07-31 07:00:00 19.5 20 Sudeste 46 Sudeste 0 922.9 0.3 71
2019-07-31 06:00:00 19.9 23 Sudeste 47 Sudeste 0 923.1 0.5 67
2019-07-31 05:00:00 20.6 12 Sudeste 38 Este 0 922.9 0.1 54
2019-07-31 04:00:00 21.8 21 Sudeste 35 Sudeste 0 922.6 -0.3 50
2019-07-31 03:00:00 22.5 17 Sudeste 36 Sudeste 0 922.6 0.4 55
2019-07-31 02:00:00 23.2 18 Sudeste 31 Sudeste 0 922.8 0.5 52
2019-07-31 01:00:00 24.3 10 Este 27 Este 0 922.9 1.1 35
2019-07-31 00:00:00 24.8 6 Norte 8 Norte 0 922.2 0.8 14
2019-07-30 23:00:00 26.2 2 Norte 6 Norte 0 922.3 0.9 14
2019-07-30 22:00:00 27.1 3 Norte 13 Noroeste 0 921.8 0.3 12
2019-07-30 21:00:00 28.9 6 Noroeste 19 Norte 0 921.4 -0.5 10
2019-07-30 20:00:00 30.1 6 Noroeste 17 Noroeste 0 921.4 -0.7 10
2019-07-30 19:00:00 31.1 7 Noroeste 23 Noroeste 0 921.5 -1.2 10
2019-07-30 18:00:00 32.6 8 Noroeste 32 Noroeste 0 921.9 -1.1 11
2019-07-30 17:00:00 33.3 7 Sur 22 Sur 0 922.1 -1.3 10
2019-07-30 16:00:00 31.5 8 Noroeste 23 Oeste 0 922.7 -1 13
2019-07-30 15:00:00 28.6 8 Nordeste 30 Noroeste 0 923 -0.8 16
2019-07-30 14:00:00 27.8 8 Norte 24 Noroeste 0 923.4 -0.3 19
2019-07-30 13:00:00 26.7 6 Sudeste 21 Noroeste 0 923.7 0.2 22
2019-07-30 12:00:00 24.9 8 Noroeste 25 Noroeste 0 923.8 0.6 26
2019-07-30 11:00:00 22.6 11 Norte 25 Norte 0 923.7 0.9 30
2019-07-30 10:00:00 20.1 8 Norte 21 Norte 0 923.5 1.3 34
2019-07-30 09:00:00 17.6 10 Norte 19 Noroeste 0 923.2 1.1 37
2019-07-30 08:00:00 16.6 6 Noroeste 12 Noroeste 0 922.8 1 36
2019-07-30 07:00:00 17.6 2 Norte 8 Noroeste 0 922.2 0.6 35
2019-07-30 06:00:00 17.8 4 Norte 9 Noroeste 0 922.1 0.5 33
2019-07-30 05:00:00 18.7 3 Noroeste 11 Noroeste 0 921.8 0.3 31
2019-07-30 04:00:00 19.7 5 Noroeste 14 Noroeste 0 921.6 0.2 29
2019-07-30 03:00:00 21.1 3 Noroeste 10 Noroeste 0 921.6 0.6 26
2019-07-30 02:00:00 22 5 Noroeste 20 Noroeste 0 921.5 0.8 25
2019-07-30 01:00:00 23.1 8 Oeste 26 Oeste 0 921.4 1.6 23
2019-07-30 00:00:00 24.8 13 Oeste 32 Oeste 0 921 1.7 19
2019-07-29 23:00:00 26.1 14 Oeste 28 Oeste 0 920.7 1.8 19
2019-07-29 22:00:00 27.4 11 Oeste 30 Oeste 0 919.8 1 19
2019-07-29 21:00:00 29.2 15 Oeste 35 Oeste 0 919.3 0.4 14
2019-07-29 20:00:00 30.9 12 Noroeste 40 Noroeste 0 918.9 -0.1 13
2019-07-29 19:00:00 32.4 16 Oeste 38 Oeste 0 918.8 -0.4 11
2019-07-29 18:00:00 33.7 14 Oeste 43 Sudoeste 0 918.9 -0.8 11
2019-07-29 17:00:00 33.9 17 Sudoeste 41 Sudoeste 0 919 -1.1 13
2019-07-29 16:00:00 33.2 13 Sur 39 Sudoeste 0 919.2 -1.2 16
2019-07-29 15:00:00 31.1 12 Oeste 41 Sudoeste 0 919.7 -0.8 21
2019-07-29 14:00:00 30.4 20 Sudoeste 34 Sudoeste 0 920.1 -0.3 19
2019-07-29 13:00:00 29.5 11 Sudoeste 30 Sudoeste 0 920.4 0.1 24
2019-07-29 12:00:00 27.6 12 Sudoeste 24 Sudoeste 0 920.5 0.5 27
2019-07-29 11:00:00 25 7 Sudoeste 17 Sudoeste 0 920.4 0.9 31
2019-07-29 10:00:00 22.7 8 Sur 14 Sudoeste 0 920.3 1 34
2019-07-29 09:00:00 21.4 4 Sur 12 Sur 0 920 1.1 36
2019-07-29 08:00:00 19.6 6 Sur 13 Sur 0 919.5 0.6 33
2019-07-29 07:00:00 19.5 6 Sur 17 Sudeste 0 919.3 0.3 32
2019-07-29 06:00:00 19.8 11 Sudeste 17 Sudeste 0 918.9 -0.1 31
2019-07-29 05:00:00 20.4 7 Sur 15 Sur 0 918.9 -0.2 29
2019-07-29 04:00:00 20.9 7 Sudeste 16 Sudeste 0 919 0 27
2019-07-29 03:00:00 21.9 7 Sudoeste 12 Sudoeste 0 919 0 25
2019-07-29 02:00:00 22.5 5 Sur 13 Sur 0 919.1 0 24
2019-07-29 01:00:00 22.5 6 Sudeste 12 Sudeste 0 919 0.4 24
2019-07-29 00:00:00 23.4 4 Sudeste 6 Sudeste 0 919 0.6 24
2019-07-28 23:00:00 24.6 2 Sudeste 5 Norte 0 919.1 0.9 24
2019-07-28 22:00:00 26 2 Norte 8 Noroeste 0 918.6 0.6 20
2019-07-28 21:00:00 27.3 5 Noroeste 26 Noroeste 0 918.4 0.3 18
2019-07-28 20:00:00 28.3 7 Oeste 25 Oeste 0 918.2 -0.4 16
2019-07-28 19:00:00 29.7 9 Sudoeste 27 Oeste 0 918 -1 18
2019-07-28 18:00:00 30.7 11 Oeste 32 Oeste 0 918.1 -1.2 15
2019-07-28 17:00:00 30 11 Sudoeste 30 Sudoeste 0 918.6 -1 17
2019-07-28 16:00:00 29.3 6 Oeste 30 Noroeste 0 919 -1 20
2019-07-28 15:00:00 27 8 Norte 25 Noroeste 0 919.3 -0.8 24
2019-07-28 14:00:00 25.2 9 Noroeste 31 Noroeste 0 919.6 -0.8 27
2019-07-28 13:00:00 23.4 9 Noroeste 30 Noroeste 0 920 -0.5 30
2019-07-28 12:00:00 21.7 10 Noroeste 22 Norte 0 920.1 -0.2 33
2019-07-28 11:00:00 19.5 5 Noroeste 14 Norte 0 920.4 0.4 40
2019-07-28 10:00:00 17.6 6 Norte 15 Norte 0 920.5 0.8 48
2019-07-28 09:00:00 15.7 5 Norte 11 Norte 0 920.3 0.9 56
2019-07-28 08:00:00 14 6 Norte 12 Norte 0 920 0.6 63
2019-07-28 07:00:00 13.6 7 Norte 17 Norte 0 919.7 0.4 67
2019-07-28 06:00:00 14.1 8 Norte 17 Norte 0 919.4 0.2 67
2019-07-28 05:00:00 15 8 Norte 19 Norte 0 919.4 0.3 63
2019-07-28 04:00:00 17.2 10 Norte 15 Norte 0 919.3 0.3 58
2019-07-28 03:00:00 19.1 6 Nordeste 12 Nordeste 0 919.2 0.5 50
2019-07-28 02:00:00 19 4 Norte 15 Norte 0 919.1 0.9 44
2019-07-28 01:00:00 20.1 6 Norte 14 Norte 0 919 1.9 40
2019-07-28 00:00:00 21.3 11 Noroeste 23 Oeste 0 918.7 2 36
2019-07-27 23:00:00 22 11 Oeste 29 Oeste 0 918.2 2 46
2019-07-26 12:00:00 27.5 18 Oeste 32 Sudoeste 0 920.7 0.1 32
2019-07-26 11:00:00 26 13 Oeste 28 Sudoeste 0 920.7 0.1 41
2019-07-26 10:00:00 24 6 Oeste 21 Oeste 0 920.9 0.7 48
2019-07-26 09:00:00 23.1 6 Oeste 21 Oeste 0 920.6 0.2 51
2019-07-26 08:00:00 23 10 Oeste 26 Oeste 0 920.6 -0.2 49
2019-07-26 07:00:00 23.5 2 Oeste 15 Oeste 0 920.2 -0.7 43
2019-07-26 06:00:00 23.7 5 Oeste 11 Oeste 0 920.4 -0.4 39
2019-07-26 05:00:00 23.9 6 Oeste 15 Sudeste 0 920.8 -0.4 35
2019-07-26 04:00:00 24.7 9 Sudeste 18 Sur 0 920.9 -0.3 31
2019-07-26 03:00:00 25.8 9 Sudeste 17 Sudeste 0 920.8 -0.6 27
2019-07-26 02:00:00 26.1 3 Sudoeste 9 Sudeste 0 921.2 0 25
2019-07-26 01:00:00 26.9 0 Calma 8 Oeste 0 921.2 0.8 23
2019-07-26 00:00:00 28.4 5 Oeste 13 Oeste 0 921.4 1.5 21